createdAt,value
2023-10-23T00:00:11.603Z,4.60
2023-10-23T00:02:39.970Z,5.57
2023-10-23T00:05:07.531Z,3.90
2023-10-23T00:07:34.344Z,3.60
2023-10-23T00:10:01.123Z,4.28
2023-10-23T00:12:30.498Z,6.78
2023-10-23T00:14:57.113Z,4.13
2023-10-23T00:17:23.776Z,5.70
2023-10-23T00:19:50.319Z,4.88
2023-10-23T00:22:16.870Z,5.25
2023-10-23T00:24:43.491Z,6.30
2023-10-23T00:27:10.076Z,8.27
2023-10-23T00:29:37.940Z,5.13
2023-10-23T00:32:04.697Z,5.38
2023-10-23T00:34:31.328Z,6.90
2023-10-23T00:36:57.940Z,5.90
2023-10-23T00:39:24.568Z,6.75
2023-10-23T00:41:51.138Z,5.63
2023-10-23T00:44:17.688Z,4.65
2023-10-23T00:46:45.237Z,6.53
2023-10-23T00:49:11.992Z,6.70
2023-10-23T00:51:38.879Z,8.05
2023-10-23T00:54:06.474Z,6.35
2023-10-23T00:56:33.764Z,7.40
2023-10-23T00:59:00.333Z,5.63
2023-10-23T01:01:27.864Z,5.38
2023-10-23T01:03:54.541Z,5.93
2023-10-23T01:06:21.701Z,7.32
2023-10-23T01:08:48.332Z,5.80
2023-10-23T01:11:15.072Z,5.93
2023-10-23T01:13:41.719Z,7.50
2023-10-23T01:16:08.631Z,8.93
2023-10-23T01:18:35.399Z,6.97
2023-10-23T01:21:02.031Z,7.18
2023-10-23T01:23:30.057Z,7.22
2023-10-23T01:25:56.643Z,8.90
2023-10-23T01:28:23.266Z,6.57
2023-10-23T01:30:50.047Z,7.85
2023-10-23T01:33:16.830Z,7.93
2023-10-23T01:35:43.592Z,8.82
2023-10-23T01:38:10.181Z,8.27
2023-10-23T01:40:36.713Z,11.00
2023-10-23T01:43:03.440Z,7.22
2023-10-23T01:45:30.038Z,7.93
2023-10-23T01:47:56.692Z,10.57
2023-10-23T01:50:24.987Z,7.40
2023-10-23T01:52:52.009Z,7.47
2023-10-23T01:55:18.783Z,7.30
2023-10-23T01:57:45.434Z,9.13
2023-10-23T02:00:12.737Z,9.60
2023-10-23T02:02:39.336Z,10.38
2023-10-23T02:05:06.067Z,8.55
2023-10-23T02:07:32.615Z,7.07
2023-10-23T02:09:59.240Z,10.85
2023-10-23T02:12:25.916Z,9.48
2023-10-23T02:14:54.241Z,12.63
2023-10-23T02:17:21.347Z,11.77
2023-10-23T02:19:48.888Z,11.57
2023-10-23T02:22:16.784Z,10.27
2023-10-23T02:24:43.364Z,9.50
2023-10-23T02:27:09.949Z,9.57
2023-10-23T02:29:36.616Z,10.88
2023-10-23T02:32:03.336Z,13.90
2023-10-23T02:34:30.098Z,14.02
2023-10-23T02:36:56.944Z,10.70
2023-10-23T02:39:23.959Z,11.88
2023-10-23T02:41:50.705Z,9.98
2023-10-23T02:44:17.648Z,13.88
2023-10-23T02:46:44.309Z,11.57
2023-10-23T02:49:11.025Z,15.57
2023-10-23T02:51:39.585Z,14.25
2023-10-23T02:54:06.558Z,21.48
2023-10-23T02:56:34.257Z,24.88
2023-10-23T02:59:01.072Z,16.15
2023-10-23T03:01:27.818Z,14.18
2023-10-23T03:03:54.596Z,13.35
2023-10-23T03:06:21.826Z,16.77
2023-10-23T03:08:48.753Z,12.27
2023-10-23T03:11:15.358Z,15.20
2023-10-23T03:13:42.004Z,20.73
2023-10-23T03:16:08.789Z,13.85
2023-10-23T03:18:35.557Z,16.20
2023-10-23T03:21:02.465Z,15.75
2023-10-23T03:23:29.658Z,15.52
2023-10-23T03:25:57.578Z,15.95
2023-10-23T03:28:24.470Z,19.20
2023-10-23T03:30:51.297Z,19.45
2023-10-23T03:33:18.111Z,21.05
2023-10-23T03:35:45.464Z,15.82
2023-10-23T03:38:13.734Z,16.08
2023-10-23T03:40:40.346Z,19.65
2023-10-23T03:43:06.890Z,16.95
2023-10-23T03:45:37.362Z,16.05
2023-10-23T03:48:04.305Z,16.83
2023-10-23T03:50:31.668Z,15.23
2023-10-23T03:52:58.826Z,15.60
2023-10-23T03:55:25.564Z,14.48
2023-10-23T03:57:52.296Z,17.17
2023-10-23T04:00:18.981Z,13.98
2023-10-23T04:02:45.720Z,15.80
2023-10-23T04:05:12.307Z,15.73
2023-10-23T04:07:39.012Z,17.80
2023-10-23T04:10:09.901Z,16.27
2023-10-23T04:12:36.608Z,15.68
2023-10-23T04:15:03.539Z,16.98
2023-10-23T04:17:30.437Z,19.42
2023-10-23T04:19:57.314Z,16.10
2023-10-23T04:22:24.091Z,13.63
2023-10-23T04:24:50.885Z,18.40
2023-10-23T04:27:17.540Z,14.35
2023-10-23T04:29:44.241Z,13.63
2023-10-23T04:32:10.827Z,12.32
2023-10-23T04:34:37.537Z,13.65
2023-10-23T04:37:04.622Z,13.10
2023-10-23T04:39:31.234Z,15.82
2023-10-23T04:41:58.008Z,19.13
2023-10-23T04:44:24.715Z,17.58
2023-10-23T04:46:51.349Z,15.45
2023-10-23T04:49:18.040Z,18.17
2023-10-23T04:51:44.669Z,17.17
2023-10-23T04:54:11.427Z,19.15
2023-10-23T04:56:37.973Z,16.95
2023-10-23T04:59:05.465Z,17.13
2023-10-23T05:01:32.086Z,15.35
2023-10-23T05:03:58.788Z,16.40
2023-10-23T05:06:28.773Z,15.57
2023-10-23T05:08:55.642Z,15.23
2023-10-23T05:11:22.284Z,15.65
2023-10-23T05:13:49.050Z,16.17
2023-10-23T05:16:15.734Z,16.25
2023-10-23T05:18:42.389Z,14.27
2023-10-23T05:21:09.731Z,14.20
2023-10-23T05:23:36.320Z,15.90
2023-10-23T05:26:03.039Z,15.50
2023-10-23T05:28:29.628Z,14.80
2023-10-23T05:30:56.255Z,15.43
2023-10-23T05:33:23.065Z,18.33
2023-10-23T05:35:49.735Z,17.15
2023-10-23T05:38:16.800Z,17.52
2023-10-23T05:40:43.571Z,21.10
2023-10-23T05:43:10.182Z,14.07
2023-10-23T05:45:39.916Z,20.40
2023-10-23T05:48:06.761Z,15.93
2023-10-23T05:50:33.383Z,18.60
2023-10-23T05:53:00.095Z,16.05
2023-10-23T05:55:26.770Z,12.48
2023-10-23T05:57:53.756Z,21.13
2023-10-23T06:00:20.376Z,15.60
2023-10-23T06:02:46.975Z,19.27
2023-10-23T06:05:13.944Z,17.40
2023-10-23T06:07:40.590Z,15.57
2023-10-23T06:10:07.494Z,16.88
2023-10-23T06:12:34.270Z,17.52
2023-10-23T06:15:00.983Z,16.65
2023-10-23T06:17:27.645Z,18.15
2023-10-23T06:19:54.358Z,16.05
2023-10-23T06:22:20.913Z,20.10
2023-10-23T06:24:47.561Z,25.83
2023-10-23T06:27:14.318Z,17.67
2023-10-23T06:29:41.011Z,22.75
2023-10-23T06:32:07.778Z,19.17
2023-10-23T06:34:34.512Z,17.30
2023-10-23T06:37:01.102Z,24.77
2023-10-23T06:39:27.689Z,19.92
2023-10-23T06:41:54.471Z,17.10
2023-10-23T06:44:21.375Z,27.95
2023-10-23T06:46:47.940Z,18.25
2023-10-23T06:49:14.536Z,34.30
2023-10-23T06:51:41.127Z,24.90
2023-10-23T06:54:07.882Z,28.10
2023-10-23T06:56:34.630Z,18.52
2023-10-23T06:59:01.209Z,20.00
2023-10-23T07:01:41.654Z,18.15
2023-10-23T07:04:11.624Z,22.48
2023-10-23T07:06:38.488Z,16.17
2023-10-23T07:09:05.952Z,20.23
2023-10-23T07:11:32.521Z,14.63
2023-10-23T07:13:59.071Z,16.27
2023-10-23T07:16:26.857Z,14.48
2023-10-23T07:18:53.592Z,17.80
2023-10-23T07:21:23.274Z,13.32
2023-10-23T07:23:50.085Z,15.40
2023-10-23T07:26:16.768Z,20.77
2023-10-23T07:28:43.420Z,16.00
2023-10-23T07:31:10.904Z,16.17
2023-10-23T07:33:37.840Z,15.85
2023-10-23T07:36:05.185Z,15.65
2023-10-23T07:38:32.273Z,11.88
2023-10-23T07:40:59.306Z,16.25
2023-10-23T07:43:29.543Z,13.38
2023-10-23T07:46:12.079Z,25.38
2023-10-23T07:48:41.886Z,16.23
2023-10-23T07:51:08.664Z,16.02
2023-10-23T07:53:36.831Z,14.75
2023-10-23T07:56:05.609Z,12.98
2023-10-23T07:58:32.567Z,14.40
2023-10-23T08:01:06.508Z,10.48
2023-10-23T08:03:35.484Z,10.30
2023-10-23T08:06:06.053Z,10.60
2023-10-23T08:08:33.170Z,9.43
2023-10-23T08:10:59.911Z,10.70
2023-10-23T08:13:26.526Z,9.05
2023-10-23T08:15:54.001Z,10.70
2023-10-23T08:18:34.475Z,10.07
2023-10-23T08:21:15.598Z,9.48
2023-10-23T08:23:43.009Z,9.50
2023-10-23T08:26:09.741Z,13.85
2023-10-23T08:28:54.272Z,13.00
2023-10-23T08:31:36.926Z,13.30
2023-10-23T08:34:04.700Z,9.52
2023-10-23T08:36:31.618Z,11.70
2023-10-23T08:38:58.220Z,14.65
2023-10-23T08:41:26.973Z,11.95
2023-10-23T08:43:53.938Z,15.50
2023-10-23T08:46:21.526Z,11.02
2023-10-23T08:48:48.234Z,11.63
2023-10-23T08:51:15.944Z,11.15
2023-10-23T08:54:09.379Z,10.30
2023-10-23T08:56:38.845Z,11.43
2023-10-23T08:59:05.858Z,12.30
2023-10-23T09:01:36.883Z,15.60
2023-10-23T09:04:05.961Z,11.95
2023-10-23T09:06:33.838Z,11.30
2023-10-23T09:09:00.838Z,9.23
2023-10-23T09:11:47.214Z,11.10
2023-10-23T09:14:25.121Z,11.70
2023-10-23T09:16:52.680Z,12.73
2023-10-23T09:19:34.230Z,9.38
2023-10-23T09:24:27.425Z,14.38
2023-10-23T09:26:54.143Z,8.77
2023-10-23T09:29:24.351Z,8.80
2023-10-23T09:31:51.504Z,7.25
2023-10-23T09:34:19.744Z,10.68
2023-10-23T09:36:51.820Z,6.82
2023-10-23T09:39:19.190Z,6.15
2023-10-23T09:41:49.177Z,6.45
2023-10-23T09:44:16.346Z,9.77
2023-10-23T09:46:44.111Z,8.30
2023-10-23T09:49:11.331Z,6.85
2023-10-23T09:51:42.067Z,8.25
2023-10-23T09:54:08.813Z,8.98
2023-10-23T09:56:36.137Z,14.27
2023-10-23T09:59:07.628Z,8.35
2023-10-23T10:01:39.562Z,6.53
2023-10-23T10:04:14.107Z,5.30
2023-10-23T10:06:43.187Z,12.82
2023-10-23T10:09:13.691Z,5.55
2023-10-23T10:11:46.581Z,8.43
2023-10-23T10:14:13.807Z,5.70
2023-10-23T10:16:41.440Z,7.03
2023-10-23T10:19:09.285Z,7.53
2023-10-23T10:21:50.703Z,7.38
2023-10-23T10:26:44.031Z,7.00
2023-10-23T10:29:11.373Z,10.55
2023-10-23T10:31:57.119Z,9.02
2023-10-23T10:34:30.394Z,6.13
2023-10-23T10:37:01.117Z,8.30
2023-10-23T10:39:47.687Z,6.18
2023-10-23T10:42:24.561Z,9.13
2023-10-23T10:44:54.614Z,8.93
2023-10-23T10:47:21.874Z,11.10
2023-10-23T10:49:48.948Z,9.50
2023-10-23T10:52:29.933Z,6.65
2023-10-23T10:54:57.027Z,8.85
2023-10-23T10:57:23.780Z,8.52
2023-10-23T10:59:59.522Z,9.95
2023-10-23T11:02:26.486Z,9.60
2023-10-23T11:04:53.236Z,10.23
2023-10-23T11:07:24.423Z,5.85
2023-10-23T11:09:51.608Z,6.28
2023-10-23T11:12:22.112Z,11.68
2023-10-23T11:14:49.007Z,5.30
2023-10-23T11:17:16.391Z,9.63
2023-10-23T11:19:43.320Z,5.35
2023-10-23T11:22:11.434Z,5.25
2023-10-23T11:24:38.564Z,5.32
2023-10-23T11:27:08.793Z,10.90
2023-10-23T11:29:42.462Z,7.05
2023-10-23T11:32:09.694Z,6.78
2023-10-23T11:34:37.103Z,6.75
2023-10-23T11:37:04.690Z,6.25
2023-10-23T11:39:31.734Z,8.57
2023-10-23T11:41:58.896Z,7.30
2023-10-23T11:44:26.420Z,6.18
2023-10-23T11:46:56.536Z,4.47
2023-10-23T11:49:26.203Z,5.50
2023-10-23T11:51:53.273Z,5.03
2023-10-23T11:54:20.887Z,6.30
2023-10-23T11:56:47.490Z,4.45
2023-10-23T11:59:23.430Z,4.97
2023-10-23T12:01:51.349Z,4.60
2023-10-23T12:04:18.052Z,6.30
2023-10-23T12:06:44.825Z,4.90
2023-10-23T12:09:11.962Z,4.55
2023-10-23T12:11:38.719Z,6.03
2023-10-23T12:14:05.303Z,4.30
2023-10-23T12:16:32.275Z,4.22
2023-10-23T12:18:59.041Z,6.50
2023-10-23T12:21:26.327Z,5.70
2023-10-23T12:23:53.493Z,3.92
2023-10-23T12:26:20.098Z,5.15
2023-10-23T12:28:46.681Z,4.80
2023-10-23T12:31:23.502Z,5.20
2023-10-23T12:33:51.284Z,5.18
2023-10-23T12:36:18.215Z,4.30
2023-10-23T12:38:45.083Z,6.18
2023-10-23T12:41:11.885Z,4.00
2023-10-23T12:43:38.913Z,5.68
2023-10-23T12:46:05.706Z,4.15
2023-10-23T12:48:32.525Z,4.43
2023-10-23T12:50:59.107Z,4.18
2023-10-23T12:53:25.962Z,4.78
2023-10-23T12:55:52.701Z,3.03
2023-10-23T12:58:19.378Z,4.78
2023-10-23T13:00:46.137Z,5.28
2023-10-23T13:03:12.769Z,7.82
2023-10-23T13:05:39.892Z,7.57
2023-10-23T13:08:06.726Z,7.78
2023-10-23T13:10:34.065Z,4.38
2023-10-23T13:13:00.783Z,4.72
2023-10-23T13:15:34.962Z,8.27
2023-10-23T13:18:02.928Z,5.65
2023-10-23T13:21:28.653Z,3.80
2023-10-23T13:23:16.192Z,10.70
2023-10-23T13:25:43.585Z,6.18
2023-10-23T13:28:12.636Z,5.30
2023-10-23T13:30:39.385Z,5.05
2023-10-23T13:33:06.214Z,5.75
2023-10-23T13:35:33.296Z,6.30
2023-10-23T13:37:59.860Z,4.68
2023-10-23T13:40:26.451Z,4.90
2023-10-23T13:42:53.138Z,3.72
2023-10-23T13:45:19.733Z,6.95
2023-10-23T13:47:46.564Z,4.70
2023-10-23T13:50:13.379Z,4.57
2023-10-23T13:52:41.146Z,3.33
2023-10-23T13:55:07.918Z,5.10
2023-10-23T13:57:34.554Z,5.55
2023-10-23T14:00:01.254Z,7.25
2023-10-23T14:02:27.971Z,6.55
2023-10-23T14:04:54.715Z,3.67
2023-10-23T14:07:21.382Z,3.78
2023-10-23T14:09:50.534Z,7.25
2023-10-23T14:12:19.373Z,6.63
2023-10-23T14:14:45.969Z,4.30
2023-10-23T14:17:12.654Z,9.05
2023-10-23T14:22:09.408Z,5.03
2023-10-23T14:24:36.071Z,4.47
2023-10-23T14:27:03.160Z,5.90
2023-10-23T14:29:30.013Z,7.57
2023-10-23T14:31:56.678Z,8.98
2023-10-23T14:34:25.074Z,6.30
2023-10-23T14:36:51.736Z,5.15
2023-10-23T14:39:18.386Z,7.35
2023-10-23T14:41:45.012Z,7.60
2023-10-23T14:44:11.566Z,9.98
2023-10-23T14:46:38.278Z,7.38
2023-10-23T14:49:05.022Z,9.65
2023-10-23T14:51:31.612Z,6.55
2023-10-23T14:53:58.256Z,5.53
2023-10-23T14:56:24.864Z,8.85
2023-10-23T14:58:51.482Z,4.40
2023-10-23T15:01:18.225Z,5.55
2023-10-23T15:03:44.990Z,5.97
2023-10-23T15:06:12.324Z,3.85
2023-10-23T15:08:39.241Z,5.50
2023-10-23T15:11:05.956Z,6.82
2023-10-23T15:13:33.304Z,4.05
2023-10-23T15:16:01.806Z,9.63
2023-10-23T15:18:28.466Z,5.43
2023-10-23T15:21:04.967Z,7.68
2023-10-23T15:23:31.882Z,6.57
2023-10-23T15:25:58.508Z,9.52
2023-10-23T15:28:25.677Z,6.32
2023-10-23T15:30:55.882Z,9.60
2023-10-23T15:33:23.028Z,15.25
2023-10-23T15:35:53.027Z,18.10
2023-10-23T15:38:21.873Z,23.63
2023-10-23T15:40:49.405Z,17.92
2023-10-23T15:43:16.901Z,19.48
2023-10-23T15:45:45.663Z,16.73
2023-10-23T15:48:12.584Z,13.07
2023-10-23T15:50:39.828Z,13.48
2023-10-23T15:53:06.552Z,13.25
2023-10-23T15:55:33.255Z,9.00
2023-10-23T15:58:00.071Z,9.25
2023-10-23T16:00:26.628Z,17.30
2023-10-23T16:02:53.228Z,21.85
2023-10-23T16:05:19.853Z,17.77
2023-10-23T16:07:46.410Z,21.92
2023-10-23T16:10:13.122Z,17.33
2023-10-23T16:12:39.751Z,24.60
2023-10-23T16:15:06.675Z,44.20
2023-10-23T16:17:33.223Z,73.43
2023-10-23T16:19:59.802Z,86.45
2023-10-23T16:22:27.082Z,52.05
2023-10-23T16:24:54.144Z,22.02
2023-10-23T16:27:20.749Z,25.40
2023-10-23T16:29:50.233Z,14.32
2023-10-23T16:32:17.843Z,13.43
2023-10-23T16:34:44.787Z,15.35
2023-10-23T16:37:11.601Z,17.38
2023-10-23T16:39:38.401Z,16.17
2023-10-23T16:42:05.296Z,13.95
2023-10-23T16:44:44.430Z,16.35
2023-10-23T16:47:15.485Z,20.20
2023-10-23T16:49:42.109Z,16.67
2023-10-23T16:52:08.750Z,21.83
2023-10-23T16:54:35.467Z,12.88
2023-10-23T16:57:02.343Z,13.68
2023-10-23T16:59:29.405Z,12.10
2023-10-23T17:01:56.306Z,12.38
2023-10-23T17:04:23.883Z,20.40
2023-10-23T17:06:50.524Z,9.80
2023-10-23T17:09:17.145Z,11.30
2023-10-23T17:11:45.434Z,16.50
2023-10-23T17:14:12.459Z,11.77
2023-10-23T17:16:39.082Z,15.23
2023-10-23T17:19:06.802Z,11.18
2023-10-23T17:21:33.486Z,11.27
2023-10-23T17:24:00.033Z,15.90
2023-10-23T17:26:28.596Z,15.23
2023-10-23T17:28:56.948Z,18.15
2023-10-23T17:31:23.656Z,22.63
2023-10-23T17:33:50.283Z,21.25
2023-10-23T17:36:18.541Z,28.25
2023-10-23T17:38:45.437Z,22.55
2023-10-23T17:41:18.545Z,24.60
2023-10-23T17:43:45.087Z,19.35
2023-10-23T17:46:11.807Z,31.73
2023-10-23T17:48:38.772Z,27.08
2023-10-23T17:51:09.702Z,29.38
2023-10-23T17:53:38.468Z,26.30
2023-10-23T17:56:09.281Z,17.13
2023-10-23T17:58:36.653Z,44.00
2023-10-23T18:01:08.743Z,54.50
2023-10-23T18:03:35.569Z,51.35
2023-10-23T18:06:04.197Z,36.20
2023-10-23T18:08:34.242Z,43.38
2023-10-23T18:11:01.284Z,40.47
2023-10-23T18:13:28.000Z,40.75
2023-10-23T18:15:54.580Z,59.13
2023-10-23T18:18:21.223Z,64.60
2023-10-23T18:20:47.968Z,72.97
2023-10-23T18:23:15.006Z,93.55
2023-10-23T18:25:41.841Z,48.00
2023-10-23T18:28:08.479Z,28.38
2023-10-23T18:30:35.279Z,26.88
2023-10-23T18:33:02.192Z,21.20
2023-10-23T18:35:28.914Z,18.30
2023-10-23T18:37:55.648Z,20.45
2023-10-23T18:40:22.425Z,18.30
2023-10-23T18:42:55.220Z,20.98
2023-10-23T18:45:21.965Z,23.65
2023-10-23T18:47:48.752Z,26.60
2023-10-23T18:50:15.731Z,21.90
2023-10-23T18:52:42.438Z,23.77
2023-10-23T18:55:09.402Z,23.15
2023-10-23T18:57:36.739Z,23.83
2023-10-23T19:00:03.913Z,23.48
2023-10-23T19:02:30.691Z,28.10
2023-10-23T19:04:57.753Z,73.22
2023-10-23T19:07:24.477Z,71.22
2023-10-23T19:09:58.282Z,64.68
2023-10-23T19:12:25.174Z,44.13
2023-10-23T19:14:52.122Z,44.40
2023-10-23T19:17:33.054Z,42.80
2023-10-23T19:20:06.672Z,43.55
2023-10-23T19:22:35.670Z,33.83
2023-10-23T19:25:02.813Z,35.30
2023-10-23T19:27:29.521Z,33.78
2023-10-23T19:29:56.495Z,45.38
2023-10-23T19:32:23.152Z,59.85
2023-10-23T19:34:50.005Z,53.63
2023-10-23T19:37:16.872Z,29.67
2023-10-23T19:39:44.999Z,26.17
2023-10-23T19:42:14.668Z,29.10
2023-10-23T19:44:41.339Z,39.90
2023-10-23T19:47:08.297Z,33.53
2023-10-23T19:49:35.185Z,26.58
2023-10-23T19:52:02.644Z,26.83
2023-10-23T19:54:38.252Z,21.02
2023-10-23T19:57:15.147Z,23.02
2023-10-23T19:59:44.276Z,68.97
2023-10-23T20:02:11.195Z,42.00
2023-10-23T20:04:38.846Z,31.08
2023-10-23T20:07:05.644Z,33.45
2023-10-23T20:09:32.428Z,51.63
2023-10-23T20:11:59.105Z,41.80
2023-10-23T20:14:25.882Z,54.67
2023-10-23T20:16:52.577Z,43.13
2023-10-23T20:19:19.312Z,38.85
2023-10-23T20:21:46.167Z,52.13
2023-10-23T20:24:12.755Z,51.03
2023-10-23T20:26:41.066Z,48.55
2023-10-23T20:29:08.316Z,45.10
2023-10-23T20:31:35.375Z,47.05
2023-10-23T20:34:02.119Z,42.45
2023-10-23T20:36:28.911Z,37.70
2023-10-23T20:38:56.159Z,41.90
2023-10-23T20:41:22.785Z,34.33
2023-10-23T20:43:50.244Z,28.85
2023-10-23T20:46:17.423Z,266.52
2023-10-23T20:48:44.275Z,63.88
2023-10-23T20:51:11.280Z,53.05
2023-10-23T20:53:38.178Z,58.97
2023-10-23T20:56:05.041Z,57.65
2023-10-23T20:58:32.283Z,45.55
2023-10-23T21:01:04.544Z,49.22
2023-10-23T21:03:31.381Z,47.63
2023-10-23T21:06:02.136Z,52.70
2023-10-23T21:08:28.956Z,51.03
2023-10-23T21:10:55.559Z,53.50
2023-10-23T21:13:22.341Z,50.17
2023-10-23T21:15:48.950Z,63.97
2023-10-23T21:18:15.590Z,67.03
2023-10-23T21:20:42.295Z,72.55
2023-10-23T21:23:08.856Z,65.35
2023-10-23T21:25:35.659Z,63.15
2023-10-23T21:28:02.262Z,66.20
2023-10-23T21:30:28.840Z,44.05
2023-10-23T21:32:55.476Z,48.78
2023-10-23T21:35:22.139Z,39.80
2023-10-23T21:37:48.831Z,27.38
2023-10-23T21:40:15.845Z,30.30
2023-10-23T21:42:42.546Z,57.75
2023-10-23T21:45:09.291Z,23.33
2023-10-23T21:47:36.033Z,32.92
2023-10-23T21:50:02.788Z,31.60
2023-10-23T21:52:29.613Z,20.25
2023-10-23T21:55:02.658Z,27.77
2023-10-23T21:57:34.774Z,25.23
2023-10-23T22:00:02.559Z,25.17
2023-10-23T22:02:29.329Z,33.72
2023-10-23T22:04:55.960Z,33.65
2023-10-23T22:07:22.672Z,33.22
2023-10-23T22:09:49.543Z,28.90
2023-10-23T22:12:16.418Z,32.03
2023-10-23T22:14:43.172Z,20.88
2023-10-23T22:17:10.400Z,27.48
2023-10-23T22:19:37.340Z,41.85
2023-10-23T22:22:04.049Z,43.33
2023-10-23T22:24:30.620Z,37.72
2023-10-23T22:26:57.224Z,36.28
2023-10-23T22:29:23.833Z,37.13
2023-10-23T22:31:50.582Z,24.08
2023-10-23T22:34:17.248Z,28.08
2023-10-23T22:36:43.820Z,28.75
2023-10-23T22:39:11.918Z,22.25
2023-10-23T22:41:41.161Z,26.25
2023-10-23T22:44:08.069Z,22.85
2023-10-23T22:46:34.788Z,32.05
2023-10-23T22:49:01.400Z,32.25
2023-10-23T22:51:28.129Z,28.65
2023-10-23T22:53:54.825Z,26.27
2023-10-23T22:56:22.194Z,48.10
2023-10-23T22:58:49.189Z,55.47
2023-10-23T23:01:15.984Z,35.58
2023-10-23T23:03:42.867Z,23.58
2023-10-23T23:06:09.931Z,28.88
2023-10-23T23:08:42.623Z,34.60
2023-10-23T23:11:09.383Z,24.95
2023-10-23T23:13:36.247Z,42.28
2023-10-23T23:16:06.063Z,29.67
2023-10-23T23:18:52.981Z,44.20
2023-10-23T23:21:20.595Z,39.13
2023-10-23T23:23:47.226Z,32.38
2023-10-23T23:26:13.932Z,46.45
2023-10-23T23:28:40.638Z,44.60
2023-10-23T23:31:07.377Z,51.55
2023-10-23T23:33:34.538Z,48.05
2023-10-23T23:36:01.532Z,54.85
2023-10-23T23:38:28.089Z,30.75
2023-10-23T23:40:54.764Z,33.50
2023-10-23T23:43:21.458Z,31.80
2023-10-23T23:45:48.119Z,42.53
2023-10-23T23:48:15.877Z,73.07
2023-10-23T23:50:42.507Z,40.03
2023-10-23T23:53:09.088Z,57.90
2023-10-23T23:55:35.723Z,46.67
2023-10-23T23:58:02.286Z,34.60
